sensor_id;sensor_type;location;lat;lon;timestamp;P1;durP1;ratioP1;P2;durP2;ratioP2
81619;SDS011;71028;53.410;6.710;2024-03-02T00:02:12;4.28;;;2.28;;
81619;SDS011;71028;53.410;6.710;2024-03-02T00:04:39;5.35;;;2.55;;
81619;SDS011;71028;53.410;6.710;2024-03-02T00:07:06;6.03;;;3.05;;
81619;SDS011;71028;53.410;6.710;2024-03-02T00:09:32;5.15;;;2.78;;
81619;SDS011;71028;53.410;6.710;2024-03-02T00:12:01;5.15;;;2.78;;
81619;SDS011;71028;53.410;6.710;2024-03-02T00:14:31;4.30;;;2.65;;
81619;SDS011;71028;53.410;6.710;2024-03-02T00:16:57;6.30;;;3.10;;
81619;SDS011;71028;53.410;6.710;2024-03-02T00:19:23;4.95;;;2.72;;
81619;SDS011;71028;53.410;6.710;2024-03-02T00:21:49;5.45;;;2.58;;
81619;SDS011;71028;53.410;6.710;2024-03-02T00:24:21;4.97;;;2.88;;
81619;SDS011;71028;53.410;6.710;2024-03-02T00:26:49;4.50;;;2.90;;
81619;SDS011;71028;53.410;6.710;2024-03-02T00:29:15;5.43;;;3.30;;
81619;SDS011;71028;53.410;6.710;2024-03-02T00:31:41;5.65;;;3.30;;
81619;SDS011;71028;53.410;6.710;2024-03-02T00:34:08;6.35;;;2.85;;
81619;SDS011;71028;53.410;6.710;2024-03-02T00:36:36;5.53;;;3.30;;
81619;SDS011;71028;53.410;6.710;2024-03-02T00:39:02;5.10;;;3.50;;
81619;SDS011;71028;53.410;6.710;2024-03-02T00:41:31;5.82;;;3.47;;
81619;SDS011;71028;53.410;6.710;2024-03-02T00:44:00;6.03;;;3.17;;
81619;SDS011;71028;53.410;6.710;2024-03-02T00:46:31;5.00;;;3.35;;
81619;SDS011;71028;53.410;6.710;2024-03-02T00:48:59;6.47;;;3.58;;
81619;SDS011;71028;53.410;6.710;2024-03-02T00:51:27;6.45;;;3.90;;
81619;SDS011;71028;53.410;6.710;2024-03-02T00:53:53;6.78;;;3.90;;
81619;SDS011;71028;53.410;6.710;2024-03-02T00:56:23;7.13;;;3.72;;
81619;SDS011;71028;53.410;6.710;2024-03-02T00:58:49;8.02;;;4.03;;
81619;SDS011;71028;53.410;6.710;2024-03-02T01:01:15;6.47;;;4.00;;
81619;SDS011;71028;53.410;6.710;2024-03-02T01:03:42;5.60;;;3.53;;
81619;SDS011;71028;53.410;6.710;2024-03-02T01:06:08;8.38;;;4.45;;
81619;SDS011;71028;53.410;6.710;2024-03-02T01:08:37;7.40;;;4.15;;
81619;SDS011;71028;53.410;6.710;2024-03-02T01:11:03;5.85;;;3.97;;
81619;SDS011;71028;53.410;6.710;2024-03-02T01:13:30;9.50;;;4.57;;
81619;SDS011;71028;53.410;6.710;2024-03-02T01:15:56;8.32;;;4.15;;
81619;SDS011;71028;53.410;6.710;2024-03-02T01:18:22;8.18;;;4.25;;
81619;SDS011;71028;53.410;6.710;2024-03-02T01:20:48;5.78;;;2.95;;
81619;SDS011;71028;53.410;6.710;2024-03-02T01:23:20;6.55;;;3.95;;
81619;SDS011;71028;53.410;6.710;2024-03-02T01:25:49;6.90;;;4.43;;
81619;SDS011;71028;53.410;6.710;2024-03-02T01:28:15;7.07;;;4.32;;
81619;SDS011;71028;53.410;6.710;2024-03-02T01:30:41;6.90;;;4.07;;
81619;SDS011;71028;53.410;6.710;2024-03-02T01:33:07;5.68;;;3.65;;
81619;SDS011;71028;53.410;6.710;2024-03-02T01:35:33;6.20;;;3.65;;
81619;SDS011;71028;53.410;6.710;2024-03-02T01:38:03;5.57;;;3.47;;
81619;SDS011;71028;53.410;6.710;2024-03-02T01:40:31;7.03;;;3.60;;
81619;SDS011;71028;53.410;6.710;2024-03-02T01:42:57;7.25;;;3.70;;
81619;SDS011;71028;53.410;6.710;2024-03-02T01:45:24;6.00;;;3.60;;
81619;SDS011;71028;53.410;6.710;2024-03-02T01:47:50;7.45;;;4.03;;
81619;SDS011;71028;53.410;6.710;2024-03-02T01:50:24;7.68;;;3.70;;
81619;SDS011;71028;53.410;6.710;2024-03-02T01:52:50;5.53;;;3.30;;
81619;SDS011;71028;53.410;6.710;2024-03-02T01:55:16;7.13;;;3.78;;
81619;SDS011;71028;53.410;6.710;2024-03-02T01:57:42;5.35;;;3.30;;
81619;SDS011;71028;53.410;6.710;2024-03-02T02:00:10;6.43;;;3.42;;
81619;SDS011;71028;53.410;6.710;2024-03-02T02:02:36;6.93;;;3.80;;
81619;SDS011;71028;53.410;6.710;2024-03-02T02:05:02;5.72;;;3.38;;
81619;SDS011;71028;53.410;6.710;2024-03-02T02:07:29;6.20;;;3.92;;
81619;SDS011;71028;53.410;6.710;2024-03-02T02:09:55;5.38;;;3.58;;
81619;SDS011;71028;53.410;6.710;2024-03-02T02:12:21;6.38;;;3.65;;
81619;SDS011;71028;53.410;6.710;2024-03-02T02:14:47;5.30;;;3.72;;
81619;SDS011;71028;53.410;6.710;2024-03-02T02:17:16;6.47;;;3.67;;
81619;SDS011;71028;53.410;6.710;2024-03-02T02:19:42;8.00;;;3.72;;
81619;SDS011;71028;53.410;6.710;2024-03-02T02:22:11;5.97;;;3.53;;
81619;SDS011;71028;53.410;6.710;2024-03-02T02:24:40;7.40;;;3.92;;
81619;SDS011;71028;53.410;6.710;2024-03-02T02:27:06;6.05;;;3.22;;
81619;SDS011;71028;53.410;6.710;2024-03-02T02:29:32;5.35;;;3.30;;
81619;SDS011;71028;53.410;6.710;2024-03-02T02:31:58;5.82;;;4.00;;
81619;SDS011;71028;53.410;6.710;2024-03-02T02:34:24;5.32;;;3.60;;
81619;SDS011;71028;53.410;6.710;2024-03-02T02:36:50;5.95;;;3.45;;
81619;SDS011;71028;53.410;6.710;2024-03-02T02:39:17;6.70;;;3.90;;
81619;SDS011;71028;53.410;6.710;2024-03-02T02:41:44;7.68;;;3.53;;
81619;SDS011;71028;53.410;6.710;2024-03-02T02:44:10;5.97;;;3.55;;
81619;SDS011;71028;53.410;6.710;2024-03-02T02:46:39;5.07;;;3.00;;
81619;SDS011;71028;53.410;6.710;2024-03-02T02:49:05;5.68;;;3.08;;
81619;SDS011;71028;53.410;6.710;2024-03-02T02:51:31;5.80;;;2.97;;
81619;SDS011;71028;53.410;6.710;2024-03-02T02:53:57;4.47;;;2.65;;
81619;SDS011;71028;53.410;6.710;2024-03-02T02:56:23;4.45;;;2.92;;
81619;SDS011;71028;53.410;6.710;2024-03-02T02:58:49;5.90;;;2.88;;
81619;SDS011;71028;53.410;6.710;2024-03-02T03:01:15;4.95;;;2.90;;
81619;SDS011;71028;53.410;6.710;2024-03-02T03:03:45;4.60;;;2.70;;
81619;SDS011;71028;53.410;6.710;2024-03-02T03:06:11;6.22;;;2.97;;
81619;SDS011;71028;53.410;6.710;2024-03-02T03:08:37;6.00;;;3.00;;
81619;SDS011;71028;53.410;6.710;2024-03-02T03:11:03;5.43;;;2.95;;
81619;SDS011;71028;53.410;6.710;2024-03-02T03:13:30;5.10;;;2.95;;
81619;SDS011;71028;53.410;6.710;2024-03-02T03:15:56;4.32;;;2.50;;
81619;SDS011;71028;53.410;6.710;2024-03-02T03:18:22;5.53;;;2.70;;
81619;SDS011;71028;53.410;6.710;2024-03-02T03:20:48;4.53;;;2.50;;
81619;SDS011;71028;53.410;6.710;2024-03-02T03:23:15;4.43;;;2.67;;
81619;SDS011;71028;53.410;6.710;2024-03-02T03:25:42;5.57;;;2.70;;
81619;SDS011;71028;53.410;6.710;2024-03-02T03:28:08;5.00;;;2.67;;
81619;SDS011;71028;53.410;6.710;2024-03-02T03:30:37;5.78;;;2.70;;
81619;SDS011;71028;53.410;6.710;2024-03-02T03:33:03;4.78;;;2.70;;
81619;SDS011;71028;53.410;6.710;2024-03-02T03:35:33;4.22;;;2.35;;
81619;SDS011;71028;53.410;6.710;2024-03-02T03:37:59;3.85;;;2.53;;
81619;SDS011;71028;53.410;6.710;2024-03-02T03:40:25;4.40;;;2.60;;
81619;SDS011;71028;53.410;6.710;2024-03-02T03:42:51;2.70;;;2.13;;
81619;SDS011;71028;53.410;6.710;2024-03-02T03:45:18;5.13;;;2.85;;
81619;SDS011;71028;53.410;6.710;2024-03-02T03:47:45;4.30;;;2.58;;
81619;SDS011;71028;53.410;6.710;2024-03-02T03:50:11;4.47;;;2.97;;
81619;SDS011;71028;53.410;6.710;2024-03-02T03:52:37;3.63;;;2.45;;
81619;SDS011;71028;53.410;6.710;2024-03-02T03:55:03;4.32;;;2.63;;
81619;SDS011;71028;53.410;6.710;2024-03-02T03:57:30;4.78;;;2.35;;
81619;SDS011;71028;53.410;6.710;2024-03-02T03:59:56;5.82;;;3.28;;
81619;SDS011;71028;53.410;6.710;2024-03-02T04:02:22;4.78;;;2.70;;
81619;SDS011;71028;53.410;6.710;2024-03-02T04:04:49;5.35;;;2.88;;
81619;SDS011;71028;53.410;6.710;2024-03-02T04:07:15;6.15;;;3.33;;
81619;SDS011;71028;53.410;6.710;2024-03-02T04:09:41;8.02;;;3.78;;
81619;SDS011;71028;53.410;6.710;2024-03-02T04:12:07;4.97;;;2.85;;
81619;SDS011;71028;53.410;6.710;2024-03-02T04:14:33;6.63;;;2.85;;
81619;SDS011;71028;53.410;6.710;2024-03-02T04:16:59;6.22;;;2.95;;
81619;SDS011;71028;53.410;6.710;2024-03-02T04:19:25;5.10;;;2.90;;
81619;SDS011;71028;53.410;6.710;2024-03-02T04:21:52;4.43;;;2.95;;
81619;SDS011;71028;53.410;6.710;2024-03-02T04:24:18;4.82;;;2.60;;
81619;SDS011;71028;53.410;6.710;2024-03-02T04:26:44;3.78;;;2.53;;
81619;SDS011;71028;53.410;6.710;2024-03-02T04:29:10;5.15;;;2.88;;
81619;SDS011;71028;53.410;6.710;2024-03-02T04:31:36;3.75;;;2.83;;
81619;SDS011;71028;53.410;6.710;2024-03-02T04:34:02;4.57;;;2.90;;
81619;SDS011;71028;53.410;6.710;2024-03-02T04:36:28;6.55;;;2.60;;
81619;SDS011;71028;53.410;6.710;2024-03-02T04:38:54;4.85;;;3.08;;
81619;SDS011;71028;53.410;6.710;2024-03-02T04:41:20;5.18;;;3.03;;
81619;SDS011;71028;53.410;6.710;2024-03-02T04:43:46;4.63;;;2.58;;
81619;SDS011;71028;53.410;6.710;2024-03-02T04:46:12;4.38;;;2.60;;
81619;SDS011;71028;53.410;6.710;2024-03-02T04:48:38;3.50;;;2.60;;
81619;SDS011;71028;53.410;6.710;2024-03-02T04:51:04;4.10;;;2.17;;
81619;SDS011;71028;53.410;6.710;2024-03-02T04:53:30;4.35;;;2.35;;
81619;SDS011;71028;53.410;6.710;2024-03-02T04:55:56;4.35;;;2.40;;
81619;SDS011;71028;53.410;6.710;2024-03-02T04:58:41;5.97;;;2.75;;
81619;SDS011;71028;53.410;6.710;2024-03-02T05:01:07;3.40;;;2.42;;
81619;SDS011;71028;53.410;6.710;2024-03-02T05:03:32;4.38;;;2.38;;
81619;SDS011;71028;53.410;6.710;2024-03-02T05:05:59;5.47;;;2.88;;
81619;SDS011;71028;53.410;6.710;2024-03-02T05:08:26;5.35;;;2.92;;
81619;SDS011;71028;53.410;6.710;2024-03-02T05:10:51;5.07;;;2.42;;
81619;SDS011;71028;53.410;6.710;2024-03-02T05:13:17;4.63;;;2.47;;
81619;SDS011;71028;53.410;6.710;2024-03-02T05:15:45;4.95;;;2.95;;
81619;SDS011;71028;53.410;6.710;2024-03-02T05:18:12;3.25;;;2.40;;
81619;SDS011;71028;53.410;6.710;2024-03-02T05:20:38;5.78;;;2.55;;
81619;SDS011;71028;53.410;6.710;2024-03-02T05:23:04;4.78;;;2.15;;
81619;SDS011;71028;53.410;6.710;2024-03-02T05:25:30;3.63;;;2.50;;
81619;SDS011;71028;53.410;6.710;2024-03-02T05:27:56;4.88;;;2.45;;
81619;SDS011;71028;53.410;6.710;2024-03-02T05:30:22;8.40;;;2.60;;
81619;SDS011;71028;53.410;6.710;2024-03-02T05:32:51;4.57;;;2.42;;
81619;SDS011;71028;53.410;6.710;2024-03-02T05:35:17;5.32;;;2.72;;
81619;SDS011;71028;53.410;6.710;2024-03-02T05:37:43;4.32;;;2.60;;
81619;SDS011;71028;53.410;6.710;2024-03-02T05:40:09;4.53;;;2.83;;
81619;SDS011;71028;53.410;6.710;2024-03-02T05:42:36;5.32;;;3.03;;
81619;SDS011;71028;53.410;6.710;2024-03-02T05:45:02;4.85;;;2.90;;
81619;SDS011;71028;53.410;6.710;2024-03-02T05:47:28;4.88;;;3.30;;
81619;SDS011;71028;53.410;6.710;2024-03-02T05:49:54;4.82;;;2.63;;
81619;SDS011;71028;53.410;6.710;2024-03-02T05:52:20;5.47;;;3.25;;
81619;SDS011;71028;53.410;6.710;2024-03-02T05:54:46;4.70;;;2.85;;
81619;SDS011;71028;53.410;6.710;2024-03-02T05:57:13;6.78;;;3.60;;
81619;SDS011;71028;53.410;6.710;2024-03-02T05:59:52;6.03;;;3.28;;
81619;SDS011;71028;53.410;6.710;2024-03-02T06:02:18;5.13;;;3.35;;
81619;SDS011;71028;53.410;6.710;2024-03-02T06:04:44;5.97;;;4.00;;
81619;SDS011;71028;53.410;6.710;2024-03-02T06:07:10;5.60;;;3.20;;
81619;SDS011;71028;53.410;6.710;2024-03-02T06:09:36;6.07;;;3.20;;
81619;SDS011;71028;53.410;6.710;2024-03-02T06:12:02;3.92;;;2.85;;
81619;SDS011;71028;53.410;6.710;2024-03-02T06:14:29;4.40;;;2.88;;
81619;SDS011;71028;53.410;6.710;2024-03-02T06:16:55;4.00;;;2.85;;
81619;SDS011;71028;53.410;6.710;2024-03-02T06:19:21;4.38;;;2.47;;
81619;SDS011;71028;53.410;6.710;2024-03-02T06:21:47;4.50;;;2.78;;
81619;SDS011;71028;53.410;6.710;2024-03-02T06:24:13;4.30;;;2.33;;
81619;SDS011;71028;53.410;6.710;2024-03-02T06:26:39;3.67;;;2.40;;
81619;SDS011;71028;53.410;6.710;2024-03-02T06:29:05;3.35;;;1.98;;
81619;SDS011;71028;53.410;6.710;2024-03-02T06:31:31;4.65;;;2.30;;
81619;SDS011;71028;53.410;6.710;2024-03-02T06:33:57;3.78;;;2.30;;
81619;SDS011;71028;53.410;6.710;2024-03-02T06:36:23;4.07;;;2.15;;
81619;SDS011;71028;53.410;6.710;2024-03-02T06:38:49;3.97;;;2.35;;
81619;SDS011;71028;53.410;6.710;2024-03-02T06:41:15;3.28;;;2.10;;
81619;SDS011;71028;53.410;6.710;2024-03-02T06:43:41;4.70;;;2.60;;
81619;SDS011;71028;53.410;6.710;2024-03-02T06:46:07;3.50;;;2.08;;
81619;SDS011;71028;53.410;6.710;2024-03-02T06:48:34;3.65;;;2.40;;
81619;SDS011;71028;53.410;6.710;2024-03-02T06:51:00;3.85;;;2.33;;
81619;SDS011;71028;53.410;6.710;2024-03-02T06:53:26;6.15;;;2.35;;
81619;SDS011;71028;53.410;6.710;2024-03-02T06:55:53;3.70;;;2.70;;
81619;SDS011;71028;53.410;6.710;2024-03-02T06:58:19;3.30;;;2.17;;
81619;SDS011;71028;53.410;6.710;2024-03-02T07:00:45;3.78;;;2.47;;
81619;SDS011;71028;53.410;6.710;2024-03-02T07:03:12;4.13;;;2.50;;
81619;SDS011;71028;53.410;6.710;2024-03-02T07:05:38;4.25;;;2.00;;
81619;SDS011;71028;53.410;6.710;2024-03-02T07:08:05;5.63;;;3.00;;
81619;SDS011;71028;53.410;6.710;2024-03-02T07:10:31;4.28;;;2.53;;
81619;SDS011;71028;53.410;6.710;2024-03-02T07:12:57;3.90;;;2.00;;
81619;SDS011;71028;53.410;6.710;2024-03-02T07:15:23;3.95;;;2.53;;
81619;SDS011;71028;53.410;6.710;2024-03-02T07:17:52;3.97;;;2.35;;
81619;SDS011;71028;53.410;6.710;2024-03-02T07:20:18;3.90;;;2.38;;
81619;SDS011;71028;53.410;6.710;2024-03-02T07:22:44;4.00;;;2.42;;
81619;SDS011;71028;53.410;6.710;2024-03-02T07:25:10;3.20;;;2.28;;
81619;SDS011;71028;53.410;6.710;2024-03-02T07:27:36;3.42;;;2.30;;
81619;SDS011;71028;53.410;6.710;2024-03-02T07:30:02;3.45;;;2.35;;
81619;SDS011;71028;53.410;6.710;2024-03-02T07:32:28;3.85;;;2.50;;
81619;SDS011;71028;53.410;6.710;2024-03-02T07:34:54;5.45;;;2.40;;
81619;SDS011;71028;53.410;6.710;2024-03-02T07:37:21;5.30;;;2.10;;
81619;SDS011;71028;53.410;6.710;2024-03-02T07:39:47;2.55;;;2.05;;
81619;SDS011;71028;53.410;6.710;2024-03-02T07:42:13;4.00;;;2.60;;
81619;SDS011;71028;53.410;6.710;2024-03-02T07:44:39;3.15;;;2.13;;
81619;SDS011;71028;53.410;6.710;2024-03-02T07:47:05;3.90;;;2.30;;
81619;SDS011;71028;53.410;6.710;2024-03-02T07:49:32;3.25;;;2.22;;
81619;SDS011;71028;53.410;6.710;2024-03-02T07:51:58;6.07;;;2.85;;
81619;SDS011;71028;53.410;6.710;2024-03-02T07:54:24;4.25;;;2.50;;
81619;SDS011;71028;53.410;6.710;2024-03-02T07:56:50;4.72;;;2.60;;
81619;SDS011;71028;53.410;6.710;2024-03-02T07:59:16;3.30;;;2.20;;
81619;SDS011;71028;53.410;6.710;2024-03-02T08:01:42;4.38;;;2.42;;
81619;SDS011;71028;53.410;6.710;2024-03-02T08:04:08;3.60;;;1.90;;
81619;SDS011;71028;53.410;6.710;2024-03-02T08:06:34;5.00;;;2.50;;
81619;SDS011;71028;53.410;6.710;2024-03-02T08:09:00;4.13;;;2.28;;
81619;SDS011;71028;53.410;6.710;2024-03-02T08:11:27;4.35;;;2.47;;
81619;SDS011;71028;53.410;6.710;2024-03-02T08:13:54;3.45;;;2.05;;
81619;SDS011;71028;53.410;6.710;2024-03-02T08:16:20;3.55;;;2.50;;
81619;SDS011;71028;53.410;6.710;2024-03-02T08:18:50;4.15;;;2.35;;
81619;SDS011;71028;53.410;6.710;2024-03-02T08:21:16;4.10;;;2.20;;
81619;SDS011;71028;53.410;6.710;2024-03-02T08:23:42;3.05;;;2.03;;
81619;SDS011;71028;53.410;6.710;2024-03-02T08:26:09;4.28;;;2.38;;
81619;SDS011;71028;53.410;6.710;2024-03-02T08:28:35;2.95;;;2.15;;
81619;SDS011;71028;53.410;6.710;2024-03-02T08:31:07;3.95;;;2.10;;
81619;SDS011;71028;53.410;6.710;2024-03-02T08:33:33;3.90;;;2.00;;
81619;SDS011;71028;53.410;6.710;2024-03-02T08:36:00;3.60;;;2.15;;
81619;SDS011;71028;53.410;6.710;2024-03-02T08:38:26;3.28;;;1.85;;
81619;SDS011;71028;53.410;6.710;2024-03-02T08:40:52;3.53;;;2.10;;
81619;SDS011;71028;53.410;6.710;2024-03-02T08:43:18;2.88;;;1.98;;
81619;SDS011;71028;53.410;6.710;2024-03-02T08:45:44;2.40;;;1.77;;
81619;SDS011;71028;53.410;6.710;2024-03-02T08:48:12;2.95;;;1.85;;
81619;SDS011;71028;53.410;6.710;2024-03-02T08:50:38;3.10;;;2.00;;
81619;SDS011;71028;53.410;6.710;2024-03-02T08:53:04;2.45;;;1.25;;
81619;SDS011;71028;53.410;6.710;2024-03-02T08:55:30;1.90;;;1.20;;
81619;SDS011;71028;53.410;6.710;2024-03-02T08:57:56;2.25;;;1.42;;
81619;SDS011;71028;53.410;6.710;2024-03-02T09:00:22;2.30;;;1.20;;
81619;SDS011;71028;53.410;6.710;2024-03-02T09:02:48;2.28;;;0.98;;
81619;SDS011;71028;53.410;6.710;2024-03-02T09:05:14;2.80;;;0.90;;
81619;SDS011;71028;53.410;6.710;2024-03-02T09:07:41;2.85;;;1.20;;
81619;SDS011;71028;53.410;6.710;2024-03-02T09:10:07;2.08;;;1.10;;
81619;SDS011;71028;53.410;6.710;2024-03-02T09:12:33;1.80;;;1.15;;
81619;SDS011;71028;53.410;6.710;2024-03-02T09:14:59;2.42;;;1.27;;
81619;SDS011;71028;53.410;6.710;2024-03-02T09:17:26;1.63;;;1.00;;
81619;SDS011;71028;53.410;6.710;2024-03-02T09:19:52;2.38;;;1.08;;
81619;SDS011;71028;53.410;6.710;2024-03-02T09:22:18;1.45;;;1.10;;
81619;SDS011;71028;53.410;6.710;2024-03-02T09:24:44;3.05;;;1.10;;
81619;SDS011;71028;53.410;6.710;2024-03-02T09:27:10;3.55;;;1.10;;
81619;SDS011;71028;53.410;6.710;2024-03-02T09:29:36;2.10;;;1.08;;
81619;SDS011;71028;53.410;6.710;2024-03-02T09:32:03;2.30;;;0.85;;
81619;SDS011;71028;53.410;6.710;2024-03-02T09:34:29;4.82;;;1.48;;
81619;SDS011;71028;53.410;6.710;2024-03-02T09:36:55;2.28;;;1.10;;
81619;SDS011;71028;53.410;6.710;2024-03-02T09:39:21;1.52;;;0.82;;
81619;SDS011;71028;53.410;6.710;2024-03-02T09:41:47;1.52;;;1.00;;
81619;SDS011;71028;53.410;6.710;2024-03-02T09:44:13;2.30;;;0.90;;
81619;SDS011;71028;53.410;6.710;2024-03-02T09:46:40;2.15;;;1.00;;
81619;SDS011;71028;53.410;6.710;2024-03-02T09:49:08;1.27;;;0.75;;
81619;SDS011;71028;53.410;6.710;2024-03-02T09:51:34;2.85;;;1.00;;
81619;SDS011;71028;53.410;6.710;2024-03-02T09:54:01;2.03;;;1.17;;
81619;SDS011;71028;53.410;6.710;2024-03-02T09:56:27;2.83;;;1.42;;
81619;SDS011;71028;53.410;6.710;2024-03-02T09:58:53;1.50;;;0.90;;
81619;SDS011;71028;53.410;6.710;2024-03-02T10:01:19;1.20;;;0.90;;
81619;SDS011;71028;53.410;6.710;2024-03-02T10:03:45;1.52;;;1.00;;
81619;SDS011;71028;53.410;6.710;2024-03-02T10:06:24;2.50;;;0.80;;
81619;SDS011;71028;53.410;6.710;2024-03-02T10:08:51;4.38;;;1.08;;
81619;SDS011;71028;53.410;6.710;2024-03-02T10:16:39;2.20;;;1.00;;
81619;SDS011;71028;53.410;6.710;2024-03-02T10:22:04;1.73;;;1.10;;
81619;SDS011;71028;53.410;6.710;2024-03-02T10:24:37;0.70;;;0.70;;
81619;SDS011;71028;53.410;6.710;2024-03-02T10:27:10;2.63;;;1.00;;
81619;SDS011;71028;53.410;6.710;2024-03-02T10:29:37;2.22;;;1.10;;
81619;SDS011;71028;53.410;6.710;2024-03-02T10:32:04;1.17;;;0.80;;
81619;SDS011;71028;53.410;6.710;2024-03-02T10:34:31;3.35;;;1.13;;
81619;SDS011;71028;53.410;6.710;2024-03-02T10:36:57;2.00;;;0.75;;
81619;SDS011;71028;53.410;6.710;2024-03-02T10:39:24;3.20;;;1.02;;
81619;SDS011;71028;53.410;6.710;2024-03-02T10:41:50;1.95;;;0.90;;
81619;SDS011;71028;53.410;6.710;2024-03-02T10:44:18;1.65;;;0.88;;
81619;SDS011;71028;53.410;6.710;2024-03-02T10:46:45;3.47;;;0.85;;
81619;SDS011;71028;53.410;6.710;2024-03-02T10:49:13;2.03;;;1.08;;
81619;SDS011;71028;53.410;6.710;2024-03-02T10:51:39;1.98;;;1.00;;
81619;SDS011;71028;53.410;6.710;2024-03-02T10:54:05;1.30;;;0.85;;
81619;SDS011;71028;53.410;6.710;2024-03-02T10:56:32;2.15;;;1.00;;
81619;SDS011;71028;53.410;6.710;2024-03-02T10:59:02;0.88;;;0.70;;
81619;SDS011;71028;53.410;6.710;2024-03-02T11:01:29;1.70;;;0.90;;
81619;SDS011;71028;53.410;6.710;2024-03-02T11:03:55;3.10;;;0.88;;
81619;SDS011;71028;53.410;6.710;2024-03-02T11:06:22;2.58;;;0.98;;
81619;SDS011;71028;53.410;6.710;2024-03-02T11:08:48;2.60;;;0.90;;
81619;SDS011;71028;53.410;6.710;2024-03-02T11:11:15;3.22;;;1.10;;
81619;SDS011;71028;53.410;6.710;2024-03-02T11:13:45;2.20;;;0.80;;
81619;SDS011;71028;53.410;6.710;2024-03-02T11:16:17;2.40;;;1.15;;
81619;SDS011;71028;53.410;6.710;2024-03-02T11:18:46;1.95;;;1.10;;
81619;SDS011;71028;53.410;6.710;2024-03-02T11:21:14;3.13;;;1.35;;
81619;SDS011;71028;53.410;6.710;2024-03-02T11:23:40;3.30;;;1.27;;
81619;SDS011;71028;53.410;6.710;2024-03-02T11:26:22;2.13;;;1.30;;
81619;SDS011;71028;53.410;6.710;2024-03-02T11:28:49;2.83;;;1.13;;
81619;SDS011;71028;53.410;6.710;2024-03-02T11:31:15;1.45;;;1.13;;
81619;SDS011;71028;53.410;6.710;2024-03-02T11:33:41;2.30;;;1.02;;
81619;SDS011;71028;53.410;6.710;2024-03-02T11:36:08;1.10;;;0.80;;
81619;SDS011;71028;53.410;6.710;2024-03-02T11:38:34;1.90;;;0.90;;
81619;SDS011;71028;53.410;6.710;2024-03-02T11:41:01;1.48;;;0.90;;
81619;SDS011;71028;53.410;6.710;2024-03-02T11:43:28;1.95;;;0.90;;
81619;SDS011;71028;53.410;6.710;2024-03-02T11:46:00;2.85;;;1.20;;
81619;SDS011;71028;53.410;6.710;2024-03-02T11:48:29;1.73;;;1.08;;
81619;SDS011;71028;53.410;6.710;2024-03-02T11:50:57;1.38;;;1.20;;
81619;SDS011;71028;53.410;6.710;2024-03-02T11:53:24;1.10;;;0.90;;
81619;SDS011;71028;53.410;6.710;2024-03-02T11:55:50;1.67;;;1.08;;
81619;SDS011;71028;53.410;6.710;2024-03-02T11:58:18;1.17;;;0.88;;
81619;SDS011;71028;53.410;6.710;2024-03-02T12:00:52;2.72;;;0.98;;
81619;SDS011;71028;53.410;6.710;2024-03-02T12:03:20;4.20;;;1.30;;
81619;SDS011;71028;53.410;6.710;2024-03-02T12:05:49;4.32;;;1.98;;
81619;SDS011;71028;53.410;6.710;2024-03-02T12:08:15;1.70;;;1.10;;
81619;SDS011;71028;53.410;6.710;2024-03-02T12:10:42;1.75;;;1.13;;
81619;SDS011;71028;53.410;6.710;2024-03-02T12:13:09;1.73;;;1.13;;
81619;SDS011;71028;53.410;6.710;2024-03-02T12:15:38;2.10;;;1.20;;
81619;SDS011;71028;53.410;6.710;2024-03-02T12:18:05;2.67;;;1.23;;
81619;SDS011;71028;53.410;6.710;2024-03-02T12:20:32;2.65;;;1.40;;
81619;SDS011;71028;53.410;6.710;2024-03-02T12:22:58;2.75;;;1.50;;
81619;SDS011;71028;53.410;6.710;2024-03-02T12:25:25;2.20;;;1.63;;
81619;SDS011;71028;53.410;6.710;2024-03-02T12:27:53;2.47;;;1.70;;
81619;SDS011;71028;53.410;6.710;2024-03-02T12:30:20;4.15;;;2.15;;
81619;SDS011;71028;53.410;6.710;2024-03-02T12:32:46;3.10;;;2.00;;
81619;SDS011;71028;53.410;6.710;2024-03-02T12:35:12;2.85;;;2.00;;
81619;SDS011;71028;53.410;6.710;2024-03-02T12:37:48;3.08;;;1.95;;
81619;SDS011;71028;53.410;6.710;2024-03-02T12:40:15;2.72;;;2.08;;
81619;SDS011;71028;53.410;6.710;2024-03-02T12:42:43;3.25;;;2.40;;
81619;SDS011;71028;53.410;6.710;2024-03-02T12:45:09;3.92;;;2.22;;
81619;SDS011;71028;53.410;6.710;2024-03-02T12:47:36;6.32;;;2.28;;
81619;SDS011;71028;53.410;6.710;2024-03-02T12:50:03;3.00;;;2.35;;
81619;SDS011;71028;53.410;6.710;2024-03-02T12:52:29;3.03;;;2.33;;
81619;SDS011;71028;53.410;6.710;2024-03-02T12:54:58;2.70;;;2.17;;
81619;SDS011;71028;53.410;6.710;2024-03-02T12:57:25;2.90;;;2.42;;
81619;SDS011;71028;53.410;6.710;2024-03-02T12:59:52;3.10;;;2.42;;
81619;SDS011;71028;53.410;6.710;2024-03-02T13:02:18;2.53;;;2.03;;
81619;SDS011;71028;53.410;6.710;2024-03-02T13:04:51;4.20;;;2.22;;
81619;SDS011;71028;53.410;6.710;2024-03-02T13:07:18;3.60;;;2.75;;
81619;SDS011;71028;53.410;6.710;2024-03-02T13:09:45;3.22;;;2.80;;
81619;SDS011;71028;53.410;6.710;2024-03-02T13:12:11;3.92;;;2.80;;
81619;SDS011;71028;53.410;6.710;2024-03-02T13:14:37;4.10;;;2.70;;
81619;SDS011;71028;53.410;6.710;2024-03-02T13:17:03;3.20;;;2.50;;
81619;SDS011;71028;53.410;6.710;2024-03-02T13:19:30;4.78;;;3.08;;
81619;SDS011;71028;53.410;6.710;2024-03-02T13:21:57;4.10;;;3.20;;
81619;SDS011;71028;53.410;6.710;2024-03-02T13:24:23;3.78;;;3.30;;
81619;SDS011;71028;53.410;6.710;2024-03-02T13:26:56;4.20;;;3.03;;
81619;SDS011;71028;53.410;6.710;2024-03-02T13:29:23;7.28;;;3.70;;
81619;SDS011;71028;53.410;6.710;2024-03-02T13:31:49;4.63;;;3.30;;
81619;SDS011;71028;53.410;6.710;2024-03-02T13:34:16;4.55;;;3.33;;
81619;SDS011;71028;53.410;6.710;2024-03-02T13:36:42;5.15;;;3.25;;
81619;SDS011;71028;53.410;6.710;2024-03-02T13:39:08;5.03;;;3.30;;
81619;SDS011;71028;53.410;6.710;2024-03-02T13:41:35;6.10;;;3.65;;
81619;SDS011;71028;53.410;6.710;2024-03-02T13:44:01;4.72;;;3.63;;
81619;SDS011;71028;53.410;6.710;2024-03-02T13:46:28;4.60;;;2.92;;
81619;SDS011;71028;53.410;6.710;2024-03-02T13:48:54;5.22;;;3.72;;
81619;SDS011;71028;53.410;6.710;2024-03-02T13:51:20;4.28;;;3.20;;
81619;SDS011;71028;53.410;6.710;2024-03-02T13:53:46;5.20;;;3.55;;
81619;SDS011;71028;53.410;6.710;2024-03-02T13:56:12;6.18;;;3.83;;
81619;SDS011;71028;53.410;6.710;2024-03-02T13:58:38;4.47;;;3.22;;
81619;SDS011;71028;53.410;6.710;2024-03-02T14:01:05;4.22;;;2.70;;
81619;SDS011;71028;53.410;6.710;2024-03-02T14:03:31;5.72;;;2.85;;
81619;SDS011;71028;53.410;6.710;2024-03-02T14:05:57;4.50;;;2.58;;
81619;SDS011;71028;53.410;6.710;2024-03-02T14:08:23;3.28;;;2.60;;
81619;SDS011;71028;53.410;6.710;2024-03-02T14:10:49;3.55;;;2.25;;
81619;SDS011;71028;53.410;6.710;2024-03-02T14:13:15;3.63;;;2.47;;
81619;SDS011;71028;53.410;6.710;2024-03-02T14:15:42;2.30;;;2.00;;
81619;SDS011;71028;53.410;6.710;2024-03-02T14:18:08;4.82;;;2.50;;
81619;SDS011;71028;53.410;6.710;2024-03-02T14:20:37;3.00;;;2.15;;
81619;SDS011;71028;53.410;6.710;2024-03-02T14:23:03;4.43;;;2.28;;
81619;SDS011;71028;53.410;6.710;2024-03-02T14:25:32;3.72;;;2.22;;
81619;SDS011;71028;53.410;6.710;2024-03-02T14:27:59;4.88;;;2.42;;
81619;SDS011;71028;53.410;6.710;2024-03-02T14:30:25;3.45;;;2.65;;
81619;SDS011;71028;53.410;6.710;2024-03-02T14:32:51;2.70;;;2.33;;
81619;SDS011;71028;53.410;6.710;2024-03-02T14:35:17;3.55;;;2.50;;
81619;SDS011;71028;53.410;6.710;2024-03-02T14:37:43;3.63;;;2.50;;
81619;SDS011;71028;53.410;6.710;2024-03-02T14:40:09;5.95;;;3.13;;
81619;SDS011;71028;53.410;6.710;2024-03-02T14:42:36;5.15;;;2.63;;
81619;SDS011;71028;53.410;6.710;2024-03-02T14:45:02;3.80;;;2.83;;
81619;SDS011;71028;53.410;6.710;2024-03-02T14:47:31;5.32;;;3.00;;
81619;SDS011;71028;53.410;6.710;2024-03-02T14:49:58;4.78;;;2.80;;
81619;SDS011;71028;53.410;6.710;2024-03-02T14:52:24;4.35;;;2.88;;
81619;SDS011;71028;53.410;6.710;2024-03-02T14:54:50;4.13;;;2.75;;